Time;durP1;ratioP1;P1;durP2;ratioP2;P2;SDS_P1;SDS_P2;PMS_P1;PMS_P2;Temp;Humidity;BMP_temperature;BMP_pressure;BME280_temperature;BME280_humidity;BME280_pressure;Samples;Min_cycle;Max_cycle;Signal;HPM_P1;HPM_P2
2022/10/07 00:01:26;;;;;;;17.70;7.80;;;;;;;14.19;67.00;100454.67;106027;1275;99263;-68
2022/10/07 00:03:56;;;;;;;18.40;8.40;;;;;;;14.13;67.03;100462.67;106085;1274;99280;-68
2022/10/07 00:06:25;;;;;;;18.30;9.00;;;;;;;14.08;67.06;100456.77;106143;1274;112690;-66
2022/10/07 00:08:55;;;;;;;17.80;8.70;;;;;;;14.04;67.04;100456.19;106102;1274;99266;-68
2022/10/07 00:11:27;;;;;;;19.10;8.50;;;;;;;13.98;67.03;100456.01;106090;1274;106276;-67
2022/10/07 00:13:59;;;;;;;18.60;8.50;;;;;;;13.91;67.12;100455.04;105992;1275;100356;-69
2022/10/07 00:16:31;;;;;;;18.40;8.60;;;;;;;13.85;67.06;100453.12;106055;1276;99223;-72
2022/10/07 00:19:06;;;;;;;18.70;8.50;;;;;;;13.78;67.20;100452.12;105988;1275;113425;-68
2022/10/07 00:21:37;;;;;;;20.50;8.30;;;;;;;13.74;67.19;100450.77;106013;1275;99286;-69
2022/10/07 00:24:09;;;;;;;17.30;7.80;;;;;;;13.70;67.28;100452.64;106072;1274;107910;-68
2022/10/07 00:26:37;;;;;;;18.70;8.60;;;;;;;13.64;67.21;100448.17;106109;1274;96535;-68
2022/10/07 00:29:08;;;;;;;21.80;8.50;;;;;;;13.59;67.30;100446.01;106092;1274;99162;-70
2022/10/07 00:31:38;;;;;;;21.90;8.20;;;;;;;13.55;67.31;100448.55;106080;1274;111643;-67
2022/10/07 00:34:09;;;;;;;19.20;8.40;;;;;;;13.50;67.26;100448.71;106017;1274;99236;-67
2022/10/07 00:36:39;;;;;;;20.90;9.40;;;;;;;13.43;67.34;100448.06;106099;1274;105915;-68
2022/10/07 00:39:12;;;;;;;19.60;8.70;;;;;;;13.38;67.30;100444.97;106108;1275;99333;-68
2022/10/07 00:41:45;;;;;;;17.90;8.70;;;;;;;13.32;67.30;100441.59;106020;1274;99810;-68
2022/10/07 00:44:31;;;;;;;18.50;8.30;;;;;;;13.27;67.39;100444.94;105985;1275;113418;-70
2022/10/07 00:47:24;;;;;;;21.30;9.20;;;;;;;13.21;67.39;100447.09;106114;1275;99953;-72
2022/10/07 00:50:12;;;;;;;21.90;8.70;;;;;;;13.13;67.44;100444.90;106048;1275;107548;-72
2022/10/07 00:52:51;;;;;;;20.00;9.10;;;;;;;13.07;67.57;100444.54;106016;1277;96612;-71
2022/10/07 00:55:25;;;;;;;21.10;9.00;;;;;;;13.04;67.47;100441.69;106129;1276;99938;-70
2022/10/07 00:57:57;;;;;;;17.70;8.80;;;;;;;13.01;67.54;100440.15;106041;1277;112697;-68
2022/10/07 01:00:27;;;;;;;21.50;9.50;;;;;;;12.97;67.65;100436.46;106151;1275;99890;-69
2022/10/07 01:02:55;;;;;;;17.90;9.20;;;;;;;12.94;67.57;100437.83;106027;1276;108407;-69
2022/10/07 01:05:22;;;;;;;19.40;9.30;;;;;;;12.92;67.55;100435.66;105941;1276;99331;-68
2022/10/07 01:07:52;;;;;;;19.20;8.60;;;;;;;12.88;67.62;100434.27;106054;1274;99239;-70
2022/10/07 01:10:48;;;;;;;19.30;8.30;;;;;;;12.83;67.60;100431.21;106137;1275;113371;-72
2022/10/07 01:13:49;;;;;;;18.40;8.60;;;;;;;12.77;67.66;100430.68;106148;1274;99223;-70
2022/10/07 01:16:31;;;;;;;19.20;9.50;;;;;;;12.71;67.66;100430.67;106035;1275;108442;-68
2022/10/07 01:19:20;;;;;;;20.20;10.10;;;;;;;12.67;67.69;100425.92;106049;1276;96700;-67
2022/10/07 01:22:01;;;;;;;19.20;8.90;;;;;;;12.61;67.73;100425.41;106066;1274;99283;-66
2022/10/07 01:24:41;;;;;;;21.10;9.10;;;;;;;12.56;67.87;100424.48;106006;1274;113493;-67
2022/10/07 01:27:18;;;;;;;24.20;9.40;;;;;;;12.52;67.82;100428.63;106079;1277;99303;-68
2022/10/07 01:30:02;;;;;;;18.50;8.80;;;;;;;12.45;67.77;100426.85;106038;1274;108309;-67
2022/10/07 01:32:52;;;;;;;18.90;8.40;;;;;;;12.39;67.83;100424.36;106072;1277;99252;-67
2022/10/07 01:35:32;;;;;;;21.80;9.70;;;;;;;12.33;67.81;100423.11;105979;1275;99224;-67
2022/10/07 01:38:09;;;;;;;21.80;9.20;;;;;;;12.27;67.90;100419.35;106060;1276;112747;-66
2022/10/07 01:40:47;;;;;;;19.80;10.20;;;;;;;12.22;67.82;100423.02;106149;1274;99264;-66
2022/10/07 01:43:18;;;;;;;16.80;8.40;;;;;;;12.16;67.83;100420.54;106079;1274;107711;-67
2022/10/07 01:45:50;;;;;;;21.00;8.40;;;;;;;12.11;67.97;100419.95;106131;1275;99814;-68
2022/10/07 01:48:18;;;;;;;17.40;8.50;;;;;;;12.06;67.91;100418.95;106148;1274;99237;-67
2022/10/07 01:50:49;;;;;;;16.70;7.70;;;;;;;12.02;67.86;100418.48;106100;1276;113494;-66
2022/10/07 01:53:23;;;;;;;19.50;8.40;;;;;;;11.95;67.78;100418.68;106086;1275;97606;-69
2022/10/07 01:56:16;;;;;;;17.90;8.00;;;;;;;11.88;67.82;100419.42;106109;1274;107681;-68
2022/10/07 01:59:12;;;;;;;17.30;8.50;;;;;;;11.81;67.92;100418.77;106091;1274;99327;-67
2022/10/07 02:02:05;;;;;;;22.20;9.10;;;;;;;11.75;67.89;100420.70;106006;1275;96630;-69
2022/10/07 02:05:05;;;;;;;19.40;8.30;;;;;;;11.70;68.00;100419.00;105949;1276;113436;-68
2022/10/07 02:08:04;;;;;;;21.70;8.70;;;;;;;11.62;68.01;100416.92;106083;1275;99367;-68
2022/10/07 02:11:01;;;;;;;17.90;8.20;;;;;;;11.56;68.06;100416.78;106092;1277;107792;-68
2022/10/07 02:13:59;;;;;;;21.00;9.30;;;;;;;11.51;68.19;100411.68;106085;1274;99249;-67
2022/10/07 02:16:35;;;;;;;19.00;8.50;;;;;;;11.45;68.12;100410.59;106123;1274;99470;-68
2022/10/07 02:19:15;;;;;;;17.80;8.80;;;;;;;11.40;67.99;100417.97;105992;1275;112773;-69
2022/10/07 02:21:48;;;;;;;17.20;8.20;;;;;;;11.35;68.25;100417.70;106036;1274;99205;-68
2022/10/07 02:24:23;;;;;;;15.60;7.80;;;;;;;11.30;68.07;100417.95;106039;1274;107705;-68
2022/10/07 02:26:54;;;;;;;22.00;10.10;;;;;;;11.24;68.18;100415.61;106138;1277;99931;-67
2022/10/07 02:29:31;;;;;;;18.40;8.60;;;;;;;11.19;68.21;100414.98;106117;1275;99163;-66
2022/10/07 02:32:05;;;;;;;21.70;8.50;;;;;;;11.15;68.10;100413.98;106119;1274;112745;-69
2022/10/07 02:34:36;;;;;;;18.20;8.70;;;;;;;11.12;68.15;100418.56;106107;1275;99210;-68
2022/10/07 02:37:18;;;;;;;18.70;8.70;;;;;;;11.09;68.26;100419.09;106118;1274;108332;-68
2022/10/07 02:39:46;;;;;;;19.40;8.70;;;;;;;11.05;68.36;100420.52;106007;1274;98183;-66
2022/10/07 02:42:45;;;;;;;15.80;7.70;;;;;;;10.98;68.04;100420.55;106103;1274;99246;-68
2022/10/07 02:45:35;;;;;;;17.80;7.60;;;;;;;10.88;68.16;100414.13;106117;1274;113405;-68
2022/10/07 02:48:26;;;;;;;17.60;7.60;;;;;;;10.82;68.14;100416.09;106136;1275;99269;-68
2022/10/07 02:51:01;;;;;;;19.40;9.00;;;;;;;10.75;68.17;100415.02;106069;1274;108573;-67
2022/10/07 02:53:35;;;;;;;19.80;8.90;;;;;;;10.68;68.28;100411.62;106036;1274;99258;-68
2022/10/07 02:56:05;;;;;;;18.70;9.60;;;;;;;10.64;68.30;100416.47;106063;1274;99341;-68
2022/10/07 02:58:36;;;;;;;19.10;8.90;;;;;;;10.61;68.38;100413.42;106039;1274;113362;-71
2022/10/07 03:01:07;;;;;;;22.70;10.30;;;;;;;10.59;68.43;100417.26;106135;1277;99245;-68
2022/10/07 03:03:35;;;;;;;20.00;9.30;;;;;;;10.56;68.45;100416.86;106116;1274;107541;-68
2022/10/07 03:06:05;;;;;;;19.70;9.00;;;;;;;10.54;68.48;100419.60;106097;1274;96606;-67
2022/10/07 03:08:35;;;;;;;20.10;9.20;;;;;;;10.51;68.50;100420.30;106104;1274;99221;-68
2022/10/07 03:11:03;;;;;;;21.50;9.00;;;;;;;10.49;68.46;100421.67;106066;1274;112354;-69
2022/10/07 03:13:33;;;;;;;18.30;9.20;;;;;;;10.45;68.55;100422.20;106110;1274;99223;-68
2022/10/07 03:16:04;;;;;;;19.90;10.10;;;;;;;10.43;68.78;100421.76;106055;1274;107768;-68
2022/10/07 03:18:34;;;;;;;19.10;8.40;;;;;;;10.41;68.73;100424.36;105975;1275;97917;-67
2022/10/07 03:21:03;;;;;;;19.90;9.10;;;;;;;10.39;68.60;100422.14;106052;1274;99202;-67
2022/10/07 03:23:34;;;;;;;20.10;8.60;;;;;;;10.35;68.63;100422.66;106107;1274;113387;-68
2022/10/07 03:26:03;;;;;;;18.00;8.50;;;;;;;10.31;68.73;100423.95;106106;1274;99084;-68
2022/10/07 03:28:36;;;;;;;18.70;8.50;;;;;;;10.29;68.78;100425.80;106053;1275;108607;-70
2022/10/07 03:31:07;;;;;;;22.10;9.00;;;;;;;10.27;68.74;100426.44;106073;1274;99223;-68
2022/10/07 03:33:36;;;;;;;18.00;8.80;;;;;;;10.24;68.74;100424.11;106021;1275;97920;-67
2022/10/07 03:36:07;;;;;;;21.70;8.40;;;;;;;10.20;68.57;100423.25;106055;1277;114095;-68
2022/10/07 03:38:37;;;;;;;22.40;8.10;;;;;;;10.14;68.64;100419.81;106132;1275;99104;-67
2022/10/07 03:41:05;;;;;;;26.10;8.60;;;;;;;10.08;68.61;100423.42;106067;1277;107858;-65
2022/10/07 03:43:36;;;;;;;20.30;8.00;;;;;;;10.02;68.64;100415.45;106067;1274;97746;-67
2022/10/07 03:46:06;;;;;;;17.90;8.20;;;;;;;9.98;68.59;100418.11;106089;1275;99262;-67
2022/10/07 03:48:34;;;;;;;19.50;8.30;;;;;;;9.91;68.66;100420.17;106083;1274;112325;-67
2022/10/07 03:51:03;;;;;;;20.30;8.40;;;;;;;9.87;68.64;100418.12;106028;1274;98906;-70
2022/10/07 03:53:31;;;;;;;21.10;8.00;;;;;;;9.82;68.71;100416.17;105947;1274;108481;-68
2022/10/07 03:56:00;;;;;;;16.30;7.20;;;;;;;9.77;68.70;100413.26;105882;1274;126653;-66
2022/10/07 03:58:28;;;;;;;16.30;7.50;;;;;;;9.71;68.67;100415.84;105947;1274;99332;-68
2022/10/07 04:01:23;;;;;;;17.80;7.60;;;;;;;9.67;68.66;100408.74;105977;1274;114092;-71
2022/10/07 04:03:54;;;;;;;19.10;8.20;;;;;;;9.63;68.81;100410.89;106039;1275;99338;-69
2022/10/07 04:06:22;;;;;;;19.20;7.40;;;;;;;9.61;68.88;100411.52;106002;1274;107686;-69
2022/10/07 04:08:54;;;;;;;18.80;8.70;;;;;;;9.58;68.83;100409.89;105988;1274;99333;-70
2022/10/07 04:11:23;;;;;;;19.00;8.70;;;;;;;9.55;68.82;100407.57;105967;1274;99293;-69
2022/10/07 04:13:52;;;;;;;21.10;8.60;;;;;;;9.51;68.90;100403.50;105949;1274;113094;-68
2022/10/07 04:16:21;;;;;;;19.20;9.60;;;;;;;9.48;68.90;100407.17;105979;1275;96707;-71
2022/10/07 04:18:54;;;;;;;19.10;9.20;;;;;;;9.45;68.89;100405.00;105951;1274;109252;-68
2022/10/07 04:21:23;;;;;;;20.70;8.80;;;;;;;9.42;68.89;100402.84;105977;1275;96706;-69
2022/10/07 04:23:51;;;;;;;17.10;8.00;;;;;;;9.38;68.87;100406.03;106009;1275;99323;-68
2022/10/07 04:26:55;;;;;;;19.90;8.90;;;;;;;9.38;69.03;100404.10;100355;1330;635602;-68
2022/10/07 04:29:24;;;;;;;19.50;8.60;;;;;;;9.35;68.95;100405.83;102432;1307;93869;-67
2022/10/07 04:31:51;;;;;;;20.00;8.20;;;;;;;9.33;69.08;100406.48;102425;1298;94321;-67
2022/10/07 04:34:20;;;;;;;16.50;8.60;;;;;;;9.31;69.09;100406.73;102431;1305;110084;-67
2022/10/07 04:36:48;;;;;;;16.90;8.10;;;;;;;9.31;69.21;100403.02;103267;1294;94358;-67
2022/10/07 04:39:15;;;;;;;18.00;8.30;;;;;;;9.31;69.31;100398.56;103131;1296;114990;-68
2022/10/07 04:41:43;;;;;;;20.90;9.50;;;;;;;9.33;69.33;100398.86;103442;1295;94254;-68
2022/10/07 04:44:12;;;;;;;23.20;9.80;;;;;;;9.32;69.35;100394.79;103545;1298;94320;-68
2022/10/07 04:46:39;;;;;;;24.60;10.20;;;;;;;9.35;69.39;100400.70;103508;1291;107412;-66
2022/10/07 04:49:09;;;;;;;20.50;9.50;;;;;;;9.35;69.37;100399.27;103299;1302;93978;-67
2022/10/07 04:51:37;;;;;;;19.00;8.80;;;;;;;9.31;69.22;100396.08;103353;1298;108042;-67
2022/10/07 04:54:05;;;;;;;21.60;9.60;;;;;;;9.26;69.28;100393.49;103405;1292;95177;-68
2022/10/07 04:56:36;;;;;;;19.10;9.30;;;;;;;9.25;69.42;100392.13;103409;1295;95149;-68
2022/10/07 04:59:04;;;;;;;21.80;10.00;;;;;;;9.26;69.46;100393.50;103396;1294;109079;-69
2022/10/07 05:01:32;;;;;;;23.90;10.30;;;;;;;9.26;69.50;100397.20;103478;1292;94219;-70
2022/10/07 05:04:00;;;;;;;23.30;10.70;;;;;;;9.26;69.54;100396.69;103520;1291;108138;-70
2022/10/07 05:06:29;;;;;;;24.80;10.10;;;;;;;9.26;69.55;100396.70;103520;1291;95251;-68
2022/10/07 05:09:00;;;;;;;17.80;8.50;;;;;;;9.26;69.56;100394.20;103548;1291;95169;-69
2022/10/07 05:11:29;;;;;;;19.50;8.10;;;;;;;9.25;69.62;100396.20;103561;1286;109163;-68
2022/10/07 05:14:00;;;;;;;23.80;9.20;;;;;;;9.26;69.69;100399.52;103494;1298;95738;-68
2022/10/07 05:16:29;;;;;;;18.80;8.50;;;;;;;9.28;69.76;100401.02;103463;1297;108049;-70
2022/10/07 05:19:00;;;;;;;22.40;9.10;;;;;;;9.30;69.73;100402.36;103320;1294;95288;-69
2022/10/07 05:21:29;;;;;;;25.40;8.90;;;;;;;9.29;69.71;100402.73;103471;1292;95374;-68
2022/10/07 05:23:58;;;;;;;20.10;9.10;;;;;;;9.30;69.84;100401.11;103399;1297;108033;-70
2022/10/07 05:26:26;;;;;;;22.60;11.20;;;;;;;9.32;69.83;100400.83;103518;1292;94390;-68
2022/10/07 05:28:57;;;;;;;29.60;12.10;;;;;;;9.37;69.98;100403.95;103430;1285;107747;-68
2022/10/07 05:31:26;;;;;;;25.20;12.40;;;;;;;9.42;69.96;100402.84;103395;1292;95254;-68
2022/10/07 05:33:55;;;;;;;23.50;11.70;;;;;;;9.46;70.00;100403.90;103400;1301;95175;-69
2022/10/07 05:36:26;;;;;;;22.10;10.80;;;;;;;9.51;69.98;100406.84;103460;1291;108305;-69
2022/10/07 05:38:56;;;;;;;25.10;11.20;;;;;;;9.56;70.03;100406.30;103458;1291;94213;-69
2022/10/07 05:41:28;;;;;;;28.50;12.00;;;;;;;9.60;70.08;100410.67;103425;1294;106691;-68
2022/10/07 05:43:56;;;;;;;28.10;11.80;;;;;;;9.65;70.30;100405.86;103371;1300;95278;-68
2022/10/07 05:46:28;;;;;;;29.90;11.60;;;;;;;9.71;70.27;100407.52;103463;1292;96166;-71
2022/10/07 05:48:56;;;;;;;36.60;11.30;;;;;;;9.77;70.40;100410.42;103377;1299;108435;-68
2022/10/07 05:51:27;;;;;;;36.70;10.10;;;;;;;9.80;70.36;100412.54;103487;1293;95515;-68
2022/10/07 05:53:58;;;;;;;42.40;11.40;;;;;;;9.82;70.42;100411.58;103381;1294;108082;-68
2022/10/07 05:56:26;;;;;;;39.40;10.70;;;;;;;9.85;70.35;100410.06;103381;1292;95169;-69
2022/10/07 05:58:55;;;;;;;43.40;11.90;;;;;;;9.84;70.11;100412.56;103392;1302;95155;-68
2022/10/07 06:01:26;;;;;;;49.10;12.50;;;;;;;9.80;70.22;100415.27;103278;1292;109006;-68
2022/10/07 06:03:58;;;;;;;53.20;12.10;;;;;;;9.79;70.41;100414.05;103402;1291;95284;-68
2022/10/07 06:06:29;;;;;;;54.10;12.80;;;;;;;9.81;70.57;100416.97;103404;1298;107367;-68
2022/10/07 06:13:06;;;;;;;47.00;12.90;;;;;;;9.83;70.49;100423.57;103366;1291;94323;-67
2022/10/07 06:14:36;;;;;;;57.80;13.60;;;;;;;9.91;70.81;100417.18;103532;1291;109093;-68
2022/10/07 06:17:06;;;;;;;58.90;13.50;;;;;;;9.94;70.75;100420.73;103471;1291;94227;-67
2022/10/07 06:19:38;;;;;;;53.80;14.10;;;;;;;9.97;70.78;100420.42;103460;1291;107767;-68
2022/10/07 06:22:06;;;;;;;37.20;13.60;;;;;;;10.03;70.85;100417.87;103521;1291;95131;-68
2022/10/07 06:24:36;;;;;;;40.30;14.70;;;;;;;10.08;70.95;100422.38;103417;1294;94252;-67
2022/10/07 06:27:06;;;;;;;34.90;14.00;;;;;;;10.16;71.11;100426.29;103449;1294;109079;-68
2022/10/07 06:29:35;;;;;;;50.30;16.00;;;;;;;10.23;71.07;100426.06;103418;1294;95868;-67
2022/10/07 06:32:04;;;;;;;40.70;15.10;;;;;;;10.27;70.87;100429.41;103407;1297;108129;-68
2022/10/07 06:34:35;;;;;;;56.60;15.60;;;;;;;10.31;70.97;100423.74;103330;1291;94258;-69
2022/10/07 06:37:03;;;;;;;34.60;16.80;;;;;;;10.36;71.08;100422.65;103545;1298;94307;-69
2022/10/07 06:39:31;;;;;;;56.00;16.30;;;;;;;10.41;71.04;100420.23;103536;1299;109041;-68
2022/10/07 06:41:59;;;;;;;32.60;15.90;;;;;;;10.47;71.08;100419.99;103547;1298;95187;-68
2022/10/07 06:44:29;;;;;;;69.40;17.00;;;;;;;10.49;71.19;100421.81;103405;1291;108170;-68
2022/10/07 06:46:58;;;;;;;39.40;18.50;;;;;;;10.54;71.20;100422.80;103411;1295;94287;-68
2022/10/07 06:49:26;;;;;;;47.00;19.20;;;;;;;10.62;71.30;100417.81;105207;1284;92810;-69
2022/10/07 06:51:53;;;;;;;41.70;19.80;;;;;;;10.70;71.29;100418.63;105244;1297;108152;-69
2022/10/07 06:54:21;;;;;;;55.80;20.80;;;;;;;10.78;71.31;100419.30;103463;1298;95182;-69
2022/10/07 06:56:50;;;;;;;73.70;20.20;;;;;;;10.82;71.34;100418.02;103402;1291;108445;-68
2022/10/07 06:59:18;;;;;;;44.60;22.10;;;;;;;10.89;71.36;100419.62;103464;1291;94309;-68
2022/10/07 07:01:46;;;;;;;41.50;24.10;;;;;;;10.96;71.37;100414.48;103478;1299;95141;-68
2022/10/07 07:04:14;;;;;;;49.80;23.40;;;;;;;11.04;71.43;100418.50;103413;1298;109014;-68
2022/10/07 07:06:42;;;;;;;47.90;24.70;;;;;;;11.09;71.57;100418.37;103495;1289;95365;-69
2022/10/07 07:09:10;;;;;;;52.50;26.20;;;;;;;11.16;71.46;100414.49;103671;1291;108200;-68
2022/10/07 07:11:43;;;;;;;52.70;27.60;;;;;;;11.24;71.70;100412.98;103444;1291;95187;-69
2022/10/07 07:14:12;;;;;;;49.00;26.20;;;;;;;11.35;71.74;100407.61;103458;1294;94332;-69
2022/10/07 07:16:45;;;;;;;46.70;24.50;;;;;;;11.48;71.67;100406.35;103510;1298;108507;-68
2022/10/07 07:19:14;;;;;;;46.40;23.60;;;;;;;11.64;71.79;100405.31;103642;1291;95170;-71
2022/10/07 07:21:45;;;;;;;38.30;23.20;;;;;;;11.78;71.71;100402.60;103382;1299;105887;-68
2022/10/07 07:24:19;;;;;;;42.30;23.80;;;;;;;11.89;71.74;100402.11;103380;1292;95381;-67
2022/10/07 07:26:47;;;;;;;43.70;23.50;;;;;;;11.97;71.76;100399.41;103427;1291;94266;-68
2022/10/07 07:29:15;;;;;;;40.20;23.40;;;;;;;12.08;71.76;100395.38;103431;1298;109056;-69
2022/10/07 07:31:43;;;;;;;40.10;22.70;;;;;;;12.18;71.89;100394.14;103446;1298;95037;-69
2022/10/07 07:34:12;;;;;;;38.40;23.60;;;;;;;12.24;72.01;100389.17;103385;1297;108198;-69
2022/10/07 07:36:50;;;;;;;39.00;23.40;;;;;;;12.28;71.92;100386.42;103437;1292;95328;-70
2022/10/07 07:39:21;;;;;;;34.20;20.50;;;;;;;12.30;72.13;100381.86;103448;1294;95196;-67
2022/10/07 07:41:49;;;;;;;29.70;19.20;;;;;;;12.33;72.06;100384.17;103381;1298;108704;-68
2022/10/07 07:44:23;;;;;;;30.50;18.50;;;;;;;12.36;72.12;100378.45;103466;1285;95158;-68
2022/10/07 07:46:51;;;;;;;27.50;18.00;;;;;;;12.40;72.15;100380.55;103392;1291;108154;-69
2022/10/07 07:49:23;;;;;;;29.80;19.60;;;;;;;12.45;72.15;100377.41;103427;1291;95234;-70
2022/10/07 07:51:51;;;;;;;28.10;18.70;;;;;;;12.49;72.19;100373.27;103393;1291;95296;-70
2022/10/07 07:54:21;;;;;;;32.60;20.30;;;;;;;12.53;72.09;100370.89;103432;1291;109451;-69
2022/10/07 07:56:59;;;;;;;32.40;20.00;;;;;;;12.56;72.10;100367.70;103417;1298;95121;-72
2022/10/07 07:59:27;;;;;;;31.00;19.40;;;;;;;12.59;72.21;100365.75;103202;1304;108559;-69
2022/10/07 08:02:01;;;;;;;29.40;17.50;;;;;;;12.62;72.17;100362.00;103360;1292;95853;-68
2022/10/07 08:04:32;;;;;;;29.60;18.30;;;;;;;12.68;72.25;100360.23;103441;1293;95213;-68
2022/10/07 08:07:00;;;;;;;32.50;19.20;;;;;;;12.74;72.30;100357.91;103346;1301;108495;-70
2022/10/07 08:09:27;;;;;;;34.60;21.60;;;;;;;12.80;72.26;100358.21;103320;1301;95315;-68
2022/10/07 08:11:56;;;;;;;35.30;20.80;;;;;;;12.86;72.22;100355.05;103418;1293;108665;-69
2022/10/07 08:14:24;;;;;;;36.40;20.70;;;;;;;12.90;72.21;100352.61;103401;1294;95172;-68
2022/10/07 08:16:54;;;;;;;32.20;20.00;;;;;;;12.96;72.29;100352.13;103387;1294;95237;-69
2022/10/07 08:19:25;;;;;;;32.00;19.70;;;;;;;13.01;72.32;100352.19;103370;1294;108852;-69
2022/10/07 08:21:53;;;;;;;29.90;18.40;;;;;;;13.05;72.30;100354.37;103340;1292;95261;-69
2022/10/07 08:24:23;;;;;;;30.30;17.50;;;;;;;13.09;72.27;100355.54;103370;1300;107619;-69
2022/10/07 08:26:55;;;;;;;29.70;17.10;;;;;;;13.16;72.36;100351.02;103358;1294;95176;-70
2022/10/07 08:29:26;;;;;;;25.40;15.80;;;;;;;13.56;71.87;100349.78;103405;1300;94231;-69
2022/10/07 08:31:53;;;;;;;25.30;14.00;;;;;;;14.42;70.82;100346.61;103360;1297;109038;-68
2022/10/07 08:34:23;;;;;;;25.00;14.00;;;;;;;15.23;70.45;100342.27;103408;1292;95876;-69
2022/10/07 08:36:51;;;;;;;26.30;13.80;;;;;;;16.00;70.38;100337.61;103368;1298;108087;-67
2022/10/07 08:39:19;;;;;;;25.30;13.90;;;;;;;16.63;70.61;100333.73;103433;1294;96620;-69
2022/10/07 08:42:14;;;;;;;27.90;13.40;;;;;;;17.19;70.95;100330.61;103296;1278;96643;-69
2022/10/07 08:44:46;;;;;;;22.80;12.00;;;;;;;17.71;71.02;100325.52;103386;1292;109712;-70
2022/10/07 08:47:25;;;;;;;23.40;12.90;;;;;;;18.05;71.35;100324.91;103392;1300;96604;-69
2022/10/07 08:50:06;;;;;;;22.50;11.20;;;;;;;18.38;71.46;100318.89;103307;1294;107287;-69
2022/10/07 08:52:38;;;;;;;19.90;11.20;;;;;;;18.69;71.53;100315.18;103364;1301;96611;-69
2022/10/07 08:55:33;;;;;;;22.40;10.80;;;;;;;18.97;71.58;100315.81;103418;1300;94230;-69
2022/10/07 08:58:44;;;;;;;24.50;11.20;;;;;;;19.23;71.43;100308.65;103333;1293;110930;-68
2022/10/07 09:01:44;;;;;;;22.30;11.20;;;;;;;19.44;71.24;100310.75;103196;1297;96552;-69
2022/10/07 09:04:31;;;;;;;20.20;10.50;;;;;;;19.65;71.08;100302.34;103267;1295;108582;-71
2022/10/07 09:07:35;;;;;;;22.20;10.20;;;;;;;19.84;71.14;100305.30;103473;1294;96636;-70
2022/10/07 09:10:25;;;;;;;28.10;10.30;;;;;;;19.96;70.95;100301.53;103265;1301;96510;-70
2022/10/07 09:13:12;;;;;;;22.00;9.60;;;;;;;20.15;70.83;100297.33;103429;1300;110644;-70
2022/10/07 09:15:48;;;;;;;22.20;9.50;;;;;;;20.33;70.93;100297.05;103236;1300;94407;-69
2022/10/07 09:18:33;;;;;;;18.10;9.20;;;;;;;20.61;70.96;100298.21;103431;1300;107376;-70
2022/10/07 09:21:27;;;;;;;18.70;8.10;;;;;;;20.97;70.89;100293.71;103435;1300;96571;-71
2022/10/07 09:24:31;;;;;;;18.30;8.00;;;;;;;21.41;70.33;100291.83;103425;1301;96617;-70
2022/10/07 09:27:12;;;;;;;17.20;6.90;;;;;;;21.84;69.92;100286.67;103178;1298;111051;-71
2022/10/07 09:29:43;;;;;;;16.80;7.10;;;;;;;22.09;69.71;100284.89;103401;1300;94995;-69
2022/10/07 09:32:17;;;;;;;17.00;7.60;;;;;;;22.26;69.88;100278.21;103369;1293;106542;-70
2022/10/07 09:34:46;;;;;;;15.30;7.40;;;;;;;22.46;69.87;100278.59;103445;1294;96489;-68
2022/10/07 09:37:20;;;;;;;20.00;7.30;;;;;;;22.56;69.64;100277.21;103400;1300;95315;-69
2022/10/07 09:39:51;;;;;;;17.60;9.00;;;;;;;22.61;69.45;100270.16;103542;1294;109480;-69
2022/10/07 09:42:42;;;;;;;19.00;7.00;;;;;;;22.65;69.51;100273.52;103383;1284;96520;-68
2022/10/07 09:45:18;;;;;;;14.30;6.60;;;;;;;22.68;69.06;100267.45;103218;1295;107448;-68
2022/10/07 09:48:06;;;;;;;14.20;6.30;;;;;;;22.65;68.85;100262.73;103341;1294;96515;-69
2022/10/07 09:50:41;;;;;;;18.10;7.00;;;;;;;22.61;68.65;100258.23;103263;1293;96628;-72
2022/10/07 09:53:19;;;;;;;15.50;5.60;;;;;;;22.55;68.56;100255.56;103488;1294;110396;-70
2022/10/07 09:55:49;;;;;;;11.70;5.80;;;;;;;22.52;68.39;100251.06;103303;1291;96981;-70
2022/10/07 09:58:24;;;;;;;9.50;4.70;;;;;;;22.39;68.02;100246.21;103510;1294;108228;-70
2022/10/07 10:00:57;;;;;;;12.40;4.60;;;;;;;22.33;67.94;100241.94;103256;1301;96603;-69
2022/10/07 10:03:36;;;;;;;8.40;3.70;;;;;;;22.36;67.91;100240.41;103316;1277;96599;-68
2022/10/07 10:06:08;;;;;;;6.40;3.30;;;;;;;22.38;67.58;100237.47;103270;1293;109659;-69
2022/10/07 10:08:42;;;;;;;7.90;3.80;;;;;;;22.32;67.66;100238.59;103321;1294;94978;-70
2022/10/07 10:11:19;;;;;;;8.60;3.70;;;;;;;22.21;67.28;100238.17;103261;1300;108197;-69
2022/10/07 10:13:50;;;;;;;6.60;3.40;;;;;;;22.15;67.12;100234.38;103313;1300;96530;-69
2022/10/07 10:16:27;;;;;;;7.50;3.50;;;;;;;22.16;66.84;100234.27;103437;1294;96545;-68
2022/10/07 10:19:01;;;;;;;8.80;3.30;;;;;;;22.16;66.75;100229.58;103397;1294;110309;-68
2022/10/07 10:21:39;;;;;;;10.10;3.90;;;;;;;22.21;66.68;100225.30;103388;1294;97447;-69
2022/10/07 10:24:14;;;;;;;11.60;5.60;;;;;;;22.18;66.43;100216.81;103304;1301;108078;-69
2022/10/07 10:27:15;;;;;;;9.30;3.60;;;;;;;22.01;66.01;100213.61;103378;1298;97143;-68
2022/10/07 10:30:02;;;;;;;5.30;3.10;;;;;;;21.63;65.68;100216.92;103340;1300;95202;-68
2022/10/07 10:32:56;;;;;;;9.30;3.50;;;;;;;21.37;65.34;100210.51;103344;1298;110591;-69
2022/10/07 10:35:36;;;;;;;9.80;3.40;;;;;;;21.02;64.99;100212.27;103375;1308;96353;-69
2022/10/07 10:38:23;;;;;;;7.70;3.60;;;;;;;20.82;64.84;100204.33;103354;1294;108008;-68
2022/10/07 10:41:09;;;;;;;7.90;3.20;;;;;;;20.72;64.85;100200.23;103418;1301;96543;-71
2022/10/07 10:44:27;;;;;;;7.30;3.50;;;;;;;20.67;64.44;100199.90;103212;1300;95248;-68
2022/10/07 10:47:11;;;;;;;8.70;3.40;;;;;;;20.58;64.02;100194.55;103324;1292;109639;-68
2022/10/07 10:50:05;;;;;;;10.30;3.50;;;;;;;20.46;63.82;100198.48;103419;1294;94971;-68
2022/10/07 10:52:48;;;;;;;6.80;3.10;;;;;;;20.30;63.49;100191.59;103305;1294;108090;-68
2022/10/07 10:55:39;;;;;;;7.60;2.70;;;;;;;20.31;63.16;100183.24;103446;1292;94974;-68
2022/10/07 10:58:29;;;;;;;10.30;3.20;;;;;;;20.42;63.31;100177.38;103306;1298;94934;-69
2022/10/07 11:01:23;;;;;;;7.80;3.40;;;;;;;20.52;63.04;100170.24;103329;1300;109894;-70
2022/10/07 11:04:12;;;;;;;7.10;2.90;;;;;;;20.63;62.91;100166.63;103363;1300;96551;-68
2022/10/07 11:06:47;;;;;;;5.90;2.90;;;;;;;20.66;62.80;100163.45;103394;1300;107980;-69
2022/10/07 11:09:32;;;;;;;7.50;3.00;;;;;;;20.61;62.40;100159.27;103455;1302;96553;-68
2022/10/07 11:12:05;;;;;;;26.70;4.00;;;;;;;20.63;62.28;100150.61;103297;1301;94926;-69
2022/10/07 11:14:44;;;;;;;9.60;3.60;;;;;;;20.71;62.20;100145.65;103438;1302;109838;-68
2022/10/07 11:17:14;;;;;;;8.40;3.30;;;;;;;20.73;61.87;100143.20;103425;1298;94225;-68
2022/10/07 11:20:03;;;;;;;7.30;3.60;;;;;;;20.70;61.82;100137.55;103419;1294;107992;-68
2022/10/07 11:22:46;;;;;;;7.20;3.40;;;;;;;20.68;61.46;100127.27;103438;1298;94701;-70
2022/10/07 11:25:41;;;;;;;7.80;3.50;;;;;;;20.74;61.44;100120.00;103444;1300;96619;-69
2022/10/07 11:28:21;;;;;;;4.60;3.10;;;;;;;20.85;61.51;100120.35;103306;1301;110386;-69
2022/10/07 11:31:04;;;;;;;7.30;3.40;;;;;;;20.95;61.57;100119.75;103430;1294;94918;-69
2022/10/07 11:33:59;;;;;;;7.70;3.40;;;;;;;20.91;61.16;100114.87;103295;1300;106555;-69
2022/10/07 11:37:01;;;;;;;10.60;3.00;;;;;;;20.90;60.82;100116.52;103401;1294;94749;-66
2022/10/07 11:39:38;;;;;;;5.70;2.90;;;;;;;20.93;60.57;100110.54;103299;1295;96556;-68
2022/10/07 11:42:24;;;;;;;8.20;3.40;;;;;;;21.04;60.68;100101.17;103361;1300;111078;-68
2022/10/07 11:45:15;;;;;;;10.00;3.40;;;;;;;21.17;60.84;100099.02;103247;1301;96575;-69
2022/10/07 11:47:49;;;;;;;10.70;3.50;;;;;;;21.20;60.45;100098.34;103372;1300;107023;-69